sensor_id;sensor_type;location;lat;lon;timestamp;pressure;altitude;pressure_sealevel;temperature;humidity
70370;BME280;57790;51.356;-2.906;2023-06-14T00:00:45;101687.69;;;25.79;95.55
70370;BME280;57790;51.356;-2.906;2023-06-14T00:03:46;101689.13;;;25.70;94.07
70370;BME280;57790;51.356;-2.906;2023-06-14T00:06:47;101691.47;;;25.67;95.22
70370;BME280;57790;51.356;-2.906;2023-06-14T00:09:50;101693.97;;;25.57;96.66
70370;BME280;57790;51.356;-2.906;2023-06-14T00:12:51;101704.50;;;25.53;94.71
70370;BME280;57790;51.356;-2.906;2023-06-14T00:15:51;101706.03;;;25.37;95.93
70370;BME280;57790;51.356;-2.906;2023-06-14T00:18:55;101707.34;;;25.35;94.42
70370;BME280;57790;51.356;-2.906;2023-06-14T00:21:55;101707.09;;;25.25;93.58
70370;BME280;57790;51.356;-2.906;2023-06-14T00:24:55;101712.19;;;25.21;96.08
70370;BME280;57790;51.356;-2.906;2023-06-14T00:27:57;101711.94;;;25.11;94.78
70370;BME280;57790;51.356;-2.906;2023-06-14T00:30:57;101705.81;;;25.04;95.77
70370;BME280;57790;51.356;-2.906;2023-06-14T00:33:58;101705.19;;;25.02;95.32
70370;BME280;57790;51.356;-2.906;2023-06-14T00:36:59;101710.47;;;24.97;97.41
70370;BME280;57790;51.356;-2.906;2023-06-14T00:39:59;101709.88;;;24.95;99.45
70370;BME280;57790;51.356;-2.906;2023-06-14T00:43:00;101717.75;;;24.84;95.62
70370;BME280;57790;51.356;-2.906;2023-06-14T00:46:00;101713.03;;;24.80;99.16
70370;BME280;57790;51.356;-2.906;2023-06-14T00:49:01;101717.16;;;24.71;97.05
70370;BME280;57790;51.356;-2.906;2023-06-14T00:52:02;101720.44;;;24.73;99.09
70370;BME280;57790;51.356;-2.906;2023-06-14T00:55:02;101721.38;;;24.67;95.87
70370;BME280;57790;51.356;-2.906;2023-06-14T00:58:03;101728.19;;;24.57;97.24
70370;BME280;57790;51.356;-2.906;2023-06-14T01:01:03;101725.13;;;24.54;98.99
70370;BME280;57790;51.356;-2.906;2023-06-14T01:04:04;101724.16;;;24.48;99.52
70370;BME280;57790;51.356;-2.906;2023-06-14T01:07:18;101727.78;;;24.42;97.67
70370;BME280;57790;51.356;-2.906;2023-06-14T01:13:48;101740.28;;;24.25;98.68
70370;BME280;57790;51.356;-2.906;2023-06-14T01:16:49;101739.94;;;24.21;99.60
70370;BME280;57790;51.356;-2.906;2023-06-14T01:19:53;101734.16;;;24.18;100.00
70370;BME280;57790;51.356;-2.906;2023-06-14T01:22:58;101738.91;;;24.04;97.67
70370;BME280;57790;51.356;-2.906;2023-06-14T01:26:00;101743.09;;;24.00;99.35
70370;BME280;57790;51.356;-2.906;2023-06-14T01:29:03;101747.19;;;23.91;99.37
70370;BME280;57790;51.356;-2.906;2023-06-14T01:32:04;101735.13;;;23.87;100.00
70370;BME280;57790;51.356;-2.906;2023-06-14T01:35:05;101733.34;;;23.81;99.73
70370;BME280;57790;51.356;-2.906;2023-06-14T01:38:07;101736.28;;;23.79;100.00
70370;BME280;57790;51.356;-2.906;2023-06-14T01:41:08;101735.69;;;23.77;100.00
70370;BME280;57790;51.356;-2.906;2023-06-14T01:44:12;101737.19;;;23.73;100.00
70370;BME280;57790;51.356;-2.906;2023-06-14T01:47:12;101738.91;;;23.67;99.09
70370;BME280;57790;51.356;-2.906;2023-06-14T01:50:14;101740.03;;;23.60;100.00
70370;BME280;57790;51.356;-2.906;2023-06-14T01:53:15;101737.72;;;23.57;100.00
70370;BME280;57790;51.356;-2.906;2023-06-14T01:56:15;101739.91;;;23.48;100.00
70370;BME280;57790;51.356;-2.906;2023-06-14T01:59:16;101732.38;;;23.50;100.00
70370;BME280;57790;51.356;-2.906;2023-06-14T02:02:17;101739.13;;;23.41;100.00
70370;BME280;57790;51.356;-2.906;2023-06-14T02:05:17;101735.44;;;23.35;100.00
70370;BME280;57790;51.356;-2.906;2023-06-14T02:08:19;101734.88;;;23.27;100.00
70370;BME280;57790;51.356;-2.906;2023-06-14T02:11:19;101729.59;;;23.13;100.00
70370;BME280;57790;51.356;-2.906;2023-06-14T02:14:20;101731.91;;;23.10;100.00
70370;BME280;57790;51.356;-2.906;2023-06-14T02:17:20;101735.69;;;23.09;100.00
70370;BME280;57790;51.356;-2.906;2023-06-14T02:20:21;101733.34;;;23.12;100.00
70370;BME280;57790;51.356;-2.906;2023-06-14T02:23:21;101740.63;;;23.12;100.00
70370;BME280;57790;51.356;-2.906;2023-06-14T02:26:21;101740.25;;;23.08;100.00
70370;BME280;57790;51.356;-2.906;2023-06-14T02:29:25;101734.91;;;23.02;100.00
70370;BME280;57790;51.356;-2.906;2023-06-14T02:32:26;101734.50;;;22.98;100.00
70370;BME280;57790;51.356;-2.906;2023-06-14T02:35:27;101743.66;;;22.97;100.00
70370;BME280;57790;51.356;-2.906;2023-06-14T02:38:27;101742.25;;;22.95;100.00
70370;BME280;57790;51.356;-2.906;2023-06-14T02:41:28;101735.63;;;22.91;100.00
70370;BME280;57790;51.356;-2.906;2023-06-14T02:44:29;101734.19;;;22.81;100.00
70370;BME280;57790;51.356;-2.906;2023-06-14T02:47:30;101728.41;;;22.78;100.00
70370;BME280;57790;51.356;-2.906;2023-06-14T02:50:30;101740.47;;;22.75;100.00
70370;BME280;57790;51.356;-2.906;2023-06-14T02:53:30;101730.13;;;22.66;100.00
70370;BME280;57790;51.356;-2.906;2023-06-14T02:56:31;101730.13;;;22.66;100.00
70370;BME280;57790;51.356;-2.906;2023-06-14T02:59:31;101735.78;;;22.64;100.00
70370;BME280;57790;51.356;-2.906;2023-06-14T03:02:32;101735.00;;;22.57;100.00
70370;BME280;57790;51.356;-2.906;2023-06-14T03:05:32;101735.63;;;22.52;100.00
70370;BME280;57790;51.356;-2.906;2023-06-14T03:08:33;101748.97;;;22.47;100.00
70370;BME280;57790;51.356;-2.906;2023-06-14T03:11:38;101748.16;;;22.40;100.00
70370;BME280;57790;51.356;-2.906;2023-06-14T03:14:39;101745.50;;;22.34;100.00
70370;BME280;57790;51.356;-2.906;2023-06-14T03:17:39;101745.34;;;22.22;100.00
70370;BME280;57790;51.356;-2.906;2023-06-14T03:20:41;101738.28;;;22.21;100.00
70370;BME280;57790;51.356;-2.906;2023-06-14T03:23:43;101746.44;;;22.14;100.00
70370;BME280;57790;51.356;-2.906;2023-06-14T03:26:44;101741.88;;;22.02;100.00
70370;BME280;57790;51.356;-2.906;2023-06-14T03:29:44;101741.88;;;21.95;100.00
70370;BME280;57790;51.356;-2.906;2023-06-14T03:32:44;101739.63;;;21.92;100.00
70370;BME280;57790;51.356;-2.906;2023-06-14T03:35:45;101741.94;;;21.88;100.00
70370;BME280;57790;51.356;-2.906;2023-06-14T03:38:46;101747.28;;;21.95;100.00
70370;BME280;57790;51.356;-2.906;2023-06-14T03:41:46;101749.41;;;21.80;100.00
70370;BME280;57790;51.356;-2.906;2023-06-14T03:44:46;101751.94;;;21.75;100.00
70370;BME280;57790;51.356;-2.906;2023-06-14T03:47:47;101758.97;;;21.76;100.00
70370;BME280;57790;51.356;-2.906;2023-06-14T03:50:47;101753.22;;;21.59;100.00
70370;BME280;57790;51.356;-2.906;2023-06-14T03:53:48;101764.63;;;21.48;100.00
70370;BME280;57790;51.356;-2.906;2023-06-14T03:56:48;101762.97;;;21.40;100.00
70370;BME280;57790;51.356;-2.906;2023-06-14T03:59:48;101759.25;;;21.41;100.00
70370;BME280;57790;51.356;-2.906;2023-06-14T04:02:49;101754.91;;;21.33;100.00
70370;BME280;57790;51.356;-2.906;2023-06-14T04:05:49;101758.22;;;21.29;100.00
70370;BME280;57790;51.356;-2.906;2023-06-14T04:08:50;101756.97;;;21.25;100.00
70370;BME280;57790;51.356;-2.906;2023-06-14T04:11:54;101756.72;;;21.20;100.00
70370;BME280;57790;51.356;-2.906;2023-06-14T04:14:55;101754.44;;;21.10;100.00
70370;BME280;57790;51.356;-2.906;2023-06-14T04:17:55;101764.41;;;21.09;100.00
70370;BME280;57790;51.356;-2.906;2023-06-14T04:20:57;101758.41;;;21.14;100.00
70370;BME280;57790;51.356;-2.906;2023-06-14T04:23:57;101765.84;;;21.05;100.00
70370;BME280;57790;51.356;-2.906;2023-06-14T04:26:58;101779.34;;;21.05;100.00
70370;BME280;57790;51.356;-2.906;2023-06-14T04:29:59;101772.91;;;21.00;100.00
70370;BME280;57790;51.356;-2.906;2023-06-14T04:33:03;101773.09;;;20.92;100.00
70370;BME280;57790;51.356;-2.906;2023-06-14T04:36:05;101773.09;;;20.85;100.00
70370;BME280;57790;51.356;-2.906;2023-06-14T04:39:07;101777.63;;;20.78;100.00
70370;BME280;57790;51.356;-2.906;2023-06-14T04:42:08;101780.34;;;20.78;100.00
70370;BME280;57790;51.356;-2.906;2023-06-14T04:45:08;101781.16;;;20.72;100.00
70370;BME280;57790;51.356;-2.906;2023-06-14T04:48:09;101779.50;;;20.71;100.00
70370;BME280;57790;51.356;-2.906;2023-06-14T04:51:10;101780.53;;;20.70;100.00
70370;BME280;57790;51.356;-2.906;2023-06-14T04:54:11;101792.94;;;20.64;100.00
70370;BME280;57790;51.356;-2.906;2023-06-14T04:57:15;101792.53;;;20.61;100.00
70370;BME280;57790;51.356;-2.906;2023-06-14T05:00:17;101799.16;;;20.58;100.00
70370;BME280;57790;51.356;-2.906;2023-06-14T05:03:18;101802.44;;;20.54;100.00
70370;BME280;57790;51.356;-2.906;2023-06-14T05:06:18;101811.75;;;20.51;100.00
70370;BME280;57790;51.356;-2.906;2023-06-14T05:09:18;101809.69;;;20.53;100.00
70370;BME280;57790;51.356;-2.906;2023-06-14T05:12:19;101819.44;;;20.54;100.00
70370;BME280;57790;51.356;-2.906;2023-06-14T05:15:20;101817.97;;;20.45;100.00
70370;BME280;57790;51.356;-2.906;2023-06-14T05:18:25;101808.44;;;20.49;100.00
70370;BME280;57790;51.356;-2.906;2023-06-14T05:21:25;101814.22;;;20.46;100.00
70370;BME280;57790;51.356;-2.906;2023-06-14T05:24:26;101819.41;;;20.47;100.00
70370;BME280;57790;51.356;-2.906;2023-06-14T05:27:26;101826.69;;;20.54;100.00
70370;BME280;57790;51.356;-2.906;2023-06-14T05:30:27;101821.13;;;20.55;100.00
70370;BME280;57790;51.356;-2.906;2023-06-14T05:33:29;101812.16;;;20.48;100.00
70370;BME280;57790;51.356;-2.906;2023-06-14T05:36:30;101807.78;;;20.40;100.00
70370;BME280;57790;51.356;-2.906;2023-06-14T05:39:30;101812.97;;;20.42;100.00
70370;BME280;57790;51.356;-2.906;2023-06-14T05:42:31;101816.72;;;20.47;100.00
70370;BME280;57790;51.356;-2.906;2023-06-14T05:45:31;101817.97;;;20.52;100.00
70370;BME280;57790;51.356;-2.906;2023-06-14T05:48:32;101822.78;;;20.56;100.00
70370;BME280;57790;51.356;-2.906;2023-06-14T05:51:32;101820.47;;;20.53;100.00
70370;BME280;57790;51.356;-2.906;2023-06-14T05:54:33;101826.06;;;20.52;100.00
70370;BME280;57790;51.356;-2.906;2023-06-14T05:57:34;101818.78;;;20.45;100.00
70370;BME280;57790;51.356;-2.906;2023-06-14T06:00:34;101824.19;;;20.45;100.00
70370;BME280;57790;51.356;-2.906;2023-06-14T06:03:35;101823.38;;;20.52;100.00
70370;BME280;57790;51.356;-2.906;2023-06-14T06:06:35;101821.34;;;20.67;100.00
70370;BME280;57790;51.356;-2.906;2023-06-14T06:09:36;101823.47;;;20.78;100.00
70370;BME280;57790;51.356;-2.906;2023-06-14T06:12:36;101825.31;;;20.71;100.00
70370;BME280;57790;51.356;-2.906;2023-06-14T06:15:36;101826.94;;;20.65;100.00
70370;BME280;57790;51.356;-2.906;2023-06-14T06:18:37;101830.09;;;20.75;100.00
70370;BME280;57790;51.356;-2.906;2023-06-14T06:21:37;101827.41;;;20.82;100.00
70370;BME280;57790;51.356;-2.906;2023-06-14T06:24:37;101837.19;;;20.83;100.00
70370;BME280;57790;51.356;-2.906;2023-06-14T06:27:38;101838.19;;;20.75;100.00
70370;BME280;57790;51.356;-2.906;2023-06-14T06:30:40;101838.63;;;20.86;100.00
70370;BME280;57790;51.356;-2.906;2023-06-14T06:33:40;101828.88;;;20.85;100.00
70370;BME280;57790;51.356;-2.906;2023-06-14T06:36:41;101845.25;;;20.83;100.00
70370;BME280;57790;51.356;-2.906;2023-06-14T06:39:42;101843.34;;;20.77;100.00
70370;BME280;57790;51.356;-2.906;2023-06-14T06:42:43;101848.13;;;20.82;100.00
70370;BME280;57790;51.356;-2.906;2023-06-14T06:45:44;101851.69;;;20.95;100.00
70370;BME280;57790;51.356;-2.906;2023-06-14T06:48:44;101836.38;;;21.02;100.00
70370;BME280;57790;51.356;-2.906;2023-06-14T06:51:59;101834.09;;;20.99;100.00
70370;BME280;57790;51.356;-2.906;2023-06-14T06:55:01;101846.56;;;21.00;100.00
70370;BME280;57790;51.356;-2.906;2023-06-14T06:58:02;101850.06;;;21.07;100.00
70370;BME280;57790;51.356;-2.906;2023-06-14T07:01:04;101848.63;;;21.05;100.00
70370;BME280;57790;51.356;-2.906;2023-06-14T07:04:05;101847.59;;;21.06;100.00
70370;BME280;57790;51.356;-2.906;2023-06-14T07:07:05;101844.69;;;21.21;100.00
70370;BME280;57790;51.356;-2.906;2023-06-14T07:10:06;101848.84;;;21.23;100.00
70370;BME280;57790;51.356;-2.906;2023-06-14T07:13:07;101852.00;;;21.33;100.00
70370;BME280;57790;51.356;-2.906;2023-06-14T07:16:08;101848.06;;;21.36;100.00
70370;BME280;57790;51.356;-2.906;2023-06-14T07:19:08;101853.25;;;21.31;100.00
70370;BME280;57790;51.356;-2.906;2023-06-14T07:22:10;101854.09;;;21.38;100.00
70370;BME280;57790;51.356;-2.906;2023-06-14T07:25:11;101854.72;;;21.47;100.00
70370;BME280;57790;51.356;-2.906;2023-06-14T07:28:16;101841.22;;;21.53;100.00
70370;BME280;57790;51.356;-2.906;2023-06-14T07:31:17;101847.88;;;21.44;100.00
70370;BME280;57790;51.356;-2.906;2023-06-14T07:34:19;101852.84;;;21.47;100.00
70370;BME280;57790;51.356;-2.906;2023-06-14T07:37:19;101852.44;;;21.50;100.00
70370;BME280;57790;51.356;-2.906;2023-06-14T07:40:20;101850.56;;;21.51;100.00
70370;BME280;57790;51.356;-2.906;2023-06-14T07:43:21;101850.78;;;21.49;100.00
70370;BME280;57790;51.356;-2.906;2023-06-14T07:46:21;101852.25;;;21.58;100.00
70370;BME280;57790;51.356;-2.906;2023-06-14T07:49:22;101849.09;;;21.68;100.00
70370;BME280;57790;51.356;-2.906;2023-06-14T07:52:22;101841.44;;;21.65;100.00
70370;BME280;57790;51.356;-2.906;2023-06-14T07:55:22;101839.38;;;21.60;100.00
70370;BME280;57790;51.356;-2.906;2023-06-14T07:58:23;101842.69;;;21.62;100.00
70370;BME280;57790;51.356;-2.906;2023-06-14T08:01:23;101846.00;;;21.64;100.00
70370;BME280;57790;51.356;-2.906;2023-06-14T08:04:25;101843.94;;;21.73;100.00
70370;BME280;57790;51.356;-2.906;2023-06-14T08:07:25;101842.88;;;21.74;100.00
70370;BME280;57790;51.356;-2.906;2023-06-14T08:10:26;101846.81;;;21.78;100.00
70370;BME280;57790;51.356;-2.906;2023-06-14T08:13:26;101843.47;;;21.83;100.00
70370;BME280;57790;51.356;-2.906;2023-06-14T08:16:27;101847.22;;;21.95;100.00
70370;BME280;57790;51.356;-2.906;2023-06-14T08:19:27;101853.66;;;22.01;100.00
70370;BME280;57790;51.356;-2.906;2023-06-14T08:22:28;101854.28;;;21.96;100.00
70370;BME280;57790;51.356;-2.906;2023-06-14T08:25:32;101843.47;;;22.03;100.00
70370;BME280;57790;51.356;-2.906;2023-06-14T08:28:32;101839.13;;;22.15;100.00
70370;BME280;57790;51.356;-2.906;2023-06-14T08:31:33;101835.78;;;22.19;100.00
70370;BME280;57790;51.356;-2.906;2023-06-14T08:34:33;101836.56;;;22.26;100.00
70370;BME280;57790;51.356;-2.906;2023-06-14T08:37:38;101849.47;;;22.31;100.00
70370;BME280;57790;51.356;-2.906;2023-06-14T08:40:41;101843.19;;;22.37;100.00
70370;BME280;57790;51.356;-2.906;2023-06-14T08:43:42;101837.78;;;22.44;100.00
70370;BME280;57790;51.356;-2.906;2023-06-14T08:46:42;101850.03;;;22.46;100.00
70370;BME280;57790;51.356;-2.906;2023-06-14T08:49:45;101848.75;;;22.49;100.00
70370;BME280;57790;51.356;-2.906;2023-06-14T08:52:48;101851.25;;;22.50;100.00
70370;BME280;57790;51.356;-2.906;2023-06-14T08:55:53;101855.16;;;22.54;100.00
70370;BME280;57790;51.356;-2.906;2023-06-14T08:58:54;101849.34;;;22.58;100.00
70370;BME280;57790;51.356;-2.906;2023-06-14T09:01:54;101850.81;;;22.60;100.00
70370;BME280;57790;51.356;-2.906;2023-06-14T09:04:55;101853.06;;;22.56;100.00
70370;BME280;57790;51.356;-2.906;2023-06-14T09:08:08;101854.34;;;22.61;100.00
70370;BME280;57790;51.356;-2.906;2023-06-14T09:11:14;101861.41;;;22.62;100.00
70370;BME280;57790;51.356;-2.906;2023-06-14T09:14:14;101857.22;;;22.66;100.00
70370;BME280;57790;51.356;-2.906;2023-06-14T09:17:15;101855.13;;;22.68;100.00
70370;BME280;57790;51.356;-2.906;2023-06-14T09:20:15;101849.25;;;22.77;100.00
70370;BME280;57790;51.356;-2.906;2023-06-14T09:23:21;101862.34;;;22.80;100.00
70370;BME280;57790;51.356;-2.906;2023-06-14T09:26:22;101856.09;;;22.80;100.00
70370;BME280;57790;51.356;-2.906;2023-06-14T09:29:23;101853.59;;;22.85;100.00
70370;BME280;57790;51.356;-2.906;2023-06-14T09:32:24;101841.53;;;22.88;100.00
70370;BME280;57790;51.356;-2.906;2023-06-14T09:35:25;101842.75;;;22.92;100.00
70370;BME280;57790;51.356;-2.906;2023-06-14T09:38:25;101841.47;;;23.01;100.00
70370;BME280;57790;51.356;-2.906;2023-06-14T09:41:37;101840.19;;;23.03;100.00
70370;BME280;57790;51.356;-2.906;2023-06-14T09:44:37;101843.91;;;23.09;100.00
70370;BME280;57790;51.356;-2.906;2023-06-14T09:47:38;101846.16;;;23.12;100.00
70370;BME280;57790;51.356;-2.906;2023-06-14T09:50:40;101842.59;;;23.18;100.00
70370;BME280;57790;51.356;-2.906;2023-06-14T09:53:41;101844.63;;;23.23;100.00
70370;BME280;57790;51.356;-2.906;2023-06-14T09:56:46;101842.91;;;23.28;100.00
70370;BME280;57790;51.356;-2.906;2023-06-14T09:59:48;101850.63;;;23.31;100.00
70370;BME280;57790;51.356;-2.906;2023-06-14T10:02:54;101849.72;;;23.37;100.00
70370;BME280;57790;51.356;-2.906;2023-06-14T10:06:02;101849.28;;;23.40;100.00
70370;BME280;57790;51.356;-2.906;2023-06-14T10:09:04;101848.63;;;23.45;100.00
70370;BME280;57790;51.356;-2.906;2023-06-14T10:12:07;101844.66;;;23.48;99.94
70370;BME280;57790;51.356;-2.906;2023-06-14T10:15:10;101850.59;;;23.56;99.27
70370;BME280;57790;51.356;-2.906;2023-06-14T10:18:24;101853.97;;;23.58;97.24
70370;BME280;57790;51.356;-2.906;2023-06-14T10:24:33;101840.09;;;23.73;97.47
70370;BME280;57790;51.356;-2.906;2023-06-14T10:27:34;101840.03;;;23.80;97.30
70370;BME280;57790;51.356;-2.906;2023-06-14T10:30:36;101849.34;;;23.84;97.72
70370;BME280;57790;51.356;-2.906;2023-06-14T10:33:41;101843.09;;;23.83;96.93
70370;BME280;57790;51.356;-2.906;2023-06-14T10:37:15;101855.31;;;23.92;95.74
70370;BME280;57790;51.356;-2.906;2023-06-14T10:40:31;101849.59;;;24.00;94.66
70370;BME280;57790;51.356;-2.906;2023-06-14T10:43:32;101849.19;;;24.03;93.25
70370;BME280;57790;51.356;-2.906;2023-06-14T10:46:32;101846.38;;;24.10;91.66
70370;BME280;57790;51.356;-2.906;2023-06-14T10:49:43;101842.84;;;24.10;86.71
70370;BME280;57790;51.356;-2.906;2023-06-14T10:52:44;101842.16;;;24.14;86.85
70370;BME280;57790;51.356;-2.906;2023-06-14T10:55:45;101843.16;;;24.20;85.95
70370;BME280;57790;51.356;-2.906;2023-06-14T10:58:46;101841.63;;;24.24;85.21
70370;BME280;57790;51.356;-2.906;2023-06-14T11:05:08;101831.88;;;24.41;84.48
70370;BME280;57790;51.356;-2.906;2023-06-14T11:11:36;101830.66;;;24.55;81.58
70370;BME280;57790;51.356;-2.906;2023-06-14T11:14:39;101831.00;;;24.59;81.06
70370;BME280;57790;51.356;-2.906;2023-06-14T11:17:50;101825.28;;;24.67;80.70
70370;BME280;57790;51.356;-2.906;2023-06-14T11:20:51;101829.78;;;24.73;79.09
70370;BME280;57790;51.356;-2.906;2023-06-14T11:23:52;101821.56;;;24.80;78.86
70370;BME280;57790;51.356;-2.906;2023-06-14T11:26:55;101813.41;;;24.80;77.51
70370;BME280;57790;51.356;-2.906;2023-06-14T11:29:56;101804.50;;;24.91;76.46
70370;BME280;57790;51.356;-2.906;2023-06-14T11:32:59;101805.22;;;24.98;74.87
70370;BME280;57790;51.356;-2.906;2023-06-14T11:36:02;101804.94;;;25.06;75.94
70370;BME280;57790;51.356;-2.906;2023-06-14T11:39:06;101801.28;;;25.12;76.79
70370;BME280;57790;51.356;-2.906;2023-06-14T11:42:14;101803.28;;;25.17;74.72
70370;BME280;57790;51.356;-2.906;2023-06-14T11:45:15;101809.56;;;25.17;74.51
70370;BME280;57790;51.356;-2.906;2023-06-14T11:48:15;101803.19;;;25.24;73.30
70370;BME280;57790;51.356;-2.906;2023-06-14T11:51:16;101803.88;;;25.31;72.14
70370;BME280;57790;51.356;-2.906;2023-06-14T11:54:17;101799.44;;;25.36;70.41
70370;BME280;57790;51.356;-2.906;2023-06-14T11:57:18;101802.50;;;25.40;69.87
70370;BME280;57790;51.356;-2.906;2023-06-14T12:00:19;101801.19;;;25.42;67.81
70370;BME280;57790;51.356;-2.906;2023-06-14T12:03:25;101798.13;;;25.50;66.64
70370;BME280;57790;51.356;-2.906;2023-06-14T12:06:30;101800.84;;;25.62;67.59
70370;BME280;57790;51.356;-2.906;2023-06-14T12:09:33;101792.38;;;25.70;67.60
70370;BME280;57790;51.356;-2.906;2023-06-14T12:12:38;101796.50;;;25.73;66.91
70370;BME280;57790;51.356;-2.906;2023-06-14T12:15:39;101788.81;;;25.82;67.60
70370;BME280;57790;51.356;-2.906;2023-06-14T12:18:40;101802.25;;;25.88;66.85
70370;BME280;57790;51.356;-2.906;2023-06-14T12:21:42;101791.28;;;25.95;67.46
70370;BME280;57790;51.356;-2.906;2023-06-14T12:24:44;101789.97;;;25.97;66.44
70370;BME280;57790;51.356;-2.906;2023-06-14T12:27:44;101785.47;;;26.03;66.56
70370;BME280;57790;51.356;-2.906;2023-06-14T12:30:46;101788.88;;;26.10;64.56
70370;BME280;57790;51.356;-2.906;2023-06-14T12:33:48;101781.91;;;26.14;65.19
70370;BME280;57790;51.356;-2.906;2023-06-14T12:36:51;101777.63;;;26.18;62.80
70370;BME280;57790;51.356;-2.906;2023-06-14T12:39:53;101777.84;;;26.28;62.40
70370;BME280;57790;51.356;-2.906;2023-06-14T12:42:53;101771.81;;;26.38;63.12
70370;BME280;57790;51.356;-2.906;2023-06-14T12:45:54;101776.28;;;26.44;64.43
70370;BME280;57790;51.356;-2.906;2023-06-14T12:48:54;101769.06;;;26.50;64.55
70370;BME280;57790;51.356;-2.906;2023-06-14T12:51:55;101778.03;;;26.50;62.13
70370;BME280;57790;51.356;-2.906;2023-06-14T12:54:55;101782.75;;;26.55;62.58
70370;BME280;57790;51.356;-2.906;2023-06-14T12:57:56;101776.31;;;26.61;61.20
70370;BME280;57790;51.356;-2.906;2023-06-14T13:00:56;101778.66;;;26.69;60.34
70370;BME280;57790;51.356;-2.906;2023-06-14T13:03:56;101779.81;;;26.73;61.71
70370;BME280;57790;51.356;-2.906;2023-06-14T13:06:57;101772.81;;;26.77;61.84
70370;BME280;57790;51.356;-2.906;2023-06-14T13:09:57;101778.69;;;26.86;60.32
70370;BME280;57790;51.356;-2.906;2023-06-14T13:12:58;101766.22;;;26.90;59.40
70370;BME280;57790;51.356;-2.906;2023-06-14T13:16:00;101753.44;;;26.90;58.49
70370;BME280;57790;51.356;-2.906;2023-06-14T13:19:00;101774.81;;;26.98;56.05
70370;BME280;57790;51.356;-2.906;2023-06-14T13:22:01;101766.75;;;27.04;54.80
70370;BME280;57790;51.356;-2.906;2023-06-14T13:25:04;101767.34;;;27.06;53.82
70370;BME280;57790;51.356;-2.906;2023-06-14T13:28:05;101762.31;;;27.14;53.90
70370;BME280;57790;51.356;-2.906;2023-06-14T13:31:05;101755.63;;;27.22;53.44
70370;BME280;57790;51.356;-2.906;2023-06-14T13:34:06;101767.41;;;27.27;52.40
70370;BME280;57790;51.356;-2.906;2023-06-14T13:37:06;101762.66;;;27.35;53.36
70370;BME280;57790;51.356;-2.906;2023-06-14T13:40:07;101757.25;;;27.40;53.77
70370;BME280;57790;51.356;-2.906;2023-06-14T13:43:07;101752.78;;;27.50;54.08
70370;BME280;57790;51.356;-2.906;2023-06-14T13:46:08;101751.53;;;27.58;54.92
70370;BME280;57790;51.356;-2.906;2023-06-14T13:49:08;101752.91;;;27.61;54.51
70370;BME280;57790;51.356;-2.906;2023-06-14T13:52:09;101754.44;;;27.68;55.62
70370;BME280;57790;51.356;-2.906;2023-06-14T13:55:09;101753.75;;;27.78;56.58
70370;BME280;57790;51.356;-2.906;2023-06-14T13:58:10;101750.53;;;27.81;57.16
70370;BME280;57790;51.356;-2.906;2023-06-14T14:01:10;101741.25;;;27.82;58.56
70370;BME280;57790;51.356;-2.906;2023-06-14T14:04:11;101739.97;;;27.90;59.87
70370;BME280;57790;51.356;-2.906;2023-06-14T14:07:12;101737.66;;;27.98;60.17
70370;BME280;57790;51.356;-2.906;2023-06-14T14:10:13;101736.88;;;28.03;59.80
70370;BME280;57790;51.356;-2.906;2023-06-14T14:13:13;101732.31;;;28.08;60.96
70370;BME280;57790;51.356;-2.906;2023-06-14T14:16:14;101728.59;;;28.20;61.11
70370;BME280;57790;51.356;-2.906;2023-06-14T14:19:15;101737.19;;;28.28;61.79
70370;BME280;57790;51.356;-2.906;2023-06-14T14:22:15;101729.88;;;28.34;62.07
70370;BME280;57790;51.356;-2.906;2023-06-14T14:25:16;101729.19;;;28.43;63.12
70370;BME280;57790;51.356;-2.906;2023-06-14T14:28:16;101729.81;;;28.51;63.63
70370;BME280;57790;51.356;-2.906;2023-06-14T14:31:19;101735.31;;;28.56;63.35
70370;BME280;57790;51.356;-2.906;2023-06-14T14:34:19;101723.31;;;28.57;62.26
70370;BME280;57790;51.356;-2.906;2023-06-14T14:37:20;101719.22;;;28.59;64.38
70370;BME280;57790;51.356;-2.906;2023-06-14T14:40:20;101722.03;;;28.64;63.06
70370;BME280;57790;51.356;-2.906;2023-06-14T14:43:21;101707.06;;;28.72;63.66
70370;BME280;57790;51.356;-2.906;2023-06-14T14:46:21;101715.00;;;28.73;63.62
70370;BME280;57790;51.356;-2.906;2023-06-14T14:49:21;101717.00;;;28.83;63.51
70370;BME280;57790;51.356;-2.906;2023-06-14T14:52:22;101718.38;;;28.86;63.65
70370;BME280;57790;51.356;-2.906;2023-06-14T14:55:22;101717.13;;;28.93;63.31
70370;BME280;57790;51.356;-2.906;2023-06-14T14:58:22;101709.78;;;28.99;64.22
70370;BME280;57790;51.356;-2.906;2023-06-14T15:01:23;101711.94;;;28.97;63.72
70370;BME280;57790;51.356;-2.906;2023-06-14T15:04:23;101713.78;;;28.91;63.55
70370;BME280;57790;51.356;-2.906;2023-06-14T15:07:24;101703.47;;;28.93;62.49
70370;BME280;57790;51.356;-2.906;2023-06-14T15:10:24;101699.97;;;29.03;62.97
70370;BME280;57790;51.356;-2.906;2023-06-14T15:13:25;101707.94;;;29.10;61.52
70370;BME280;57790;51.356;-2.906;2023-06-14T15:16:25;101703.88;;;29.17;62.42
70370;BME280;57790;51.356;-2.906;2023-06-14T15:19:25;101704.72;;;29.18;62.88
70370;BME280;57790;51.356;-2.906;2023-06-14T15:22:26;101702.25;;;29.16;62.66
70370;BME280;57790;51.356;-2.906;2023-06-14T15:25:27;101699.50;;;29.16;62.39
70370;BME280;57790;51.356;-2.906;2023-06-14T15:28:27;101701.22;;;29.22;62.55
70370;BME280;57790;51.356;-2.906;2023-06-14T15:31:32;101705.00;;;29.21;62.41
70370;BME280;57790;51.356;-2.906;2023-06-14T15:34:33;101706.09;;;29.20;61.39
70370;BME280;57790;51.356;-2.906;2023-06-14T15:37:33;101701.22;;;29.27;61.54
70370;BME280;57790;51.356;-2.906;2023-06-14T15:40:33;101693.84;;;29.28;61.63
70370;BME280;57790;51.356;-2.906;2023-06-14T15:43:34;101701.78;;;29.29;60.47